Time;durP1;ratioP1;P1;durP2;ratioP2;P2;SDS_P1;SDS_P2;PMS_P1;PMS_P2;Temp;Humidity;BMP_temperature;BMP_pressure;BME280_temperature;BME280_humidity;BME280_pressure;Samples;Min_cycle;Max_cycle;Signal;HPM_P1;HPM_P2
2023/01/07 00:01:37;;;;;;;44.97;29.45;;;10.40;99.90;;;;;;5073018;28;20029;-48
2023/01/07 00:04:04;;;;;;;;;;;10.10;99.90;;;;;;5073950;28;20063;-49
2023/01/07 00:06:33;;;;;;;40.95;28.40;;;10.00;99.90;;;;;;5073447;28;20019;-48
2023/01/07 00:09:00;;;;;;;41.92;28.15;;;10.50;99.90;;;;;;5072812;28;20072;-45
2023/01/07 00:11:28;;;;;;;44.08;29.73;;;10.00;99.90;;;;;;5073550;28;20483;-47
2023/01/07 00:13:55;;;;;;;44.40;30.13;;;10.80;99.90;;;;;;5073514;28;20131;-47
2023/01/07 00:16:23;;;;;;;44.22;30.33;;;10.20;99.90;;;;;;5073207;28;20079;-48
2023/01/07 00:18:51;;;;;;;47.83;31.23;;;10.30;99.90;;;;;;5073113;28;20039;-48
2023/01/07 00:21:18;;;;;;;47.03;32.45;;;10.80;99.90;;;;;;5073413;28;20132;-48
2023/01/07 00:23:45;;;;;;;43.60;31.02;;;10.80;99.90;;;;;;5072963;28;20116;-47
2023/01/07 00:26:17;;;;;;;45.53;32.13;;;10.80;99.90;;;;;;5071367;28;20043;-45
2023/01/07 00:28:45;;;;;;;44.95;31.67;;;10.20;99.90;;;;;;5072811;28;20071;-48
2023/01/07 00:31:19;;;;;;;43.10;31.50;;;10.80;99.90;;;;;;5072579;28;20430;-47
2023/01/07 00:34:05;;;;;;;;;;;10.30;99.90;;;;;;5073272;28;21269;-46
2023/01/07 00:36:39;;;;;;;45.85;31.30;;;10.70;99.90;;;;;;5072331;28;19924;-47
2023/01/07 00:39:09;;;;;;;43.95;31.52;;;10.90;99.90;;;;;;5073221;28;20055;-46
2023/01/07 00:41:35;;;;;;;40.50;31.17;;;10.40;99.90;;;;;;5071715;28;20032;-46
2023/01/07 00:44:02;;;;;;;42.78;31.65;;;11.00;99.90;;;;;;5071667;28;20520;-46
2023/01/07 00:46:28;;;;;;;44.95;32.13;;;10.20;99.90;;;;;;5071671;28;20131;-45
2023/01/07 00:48:54;;;;;;;45.70;32.83;;;10.30;99.90;;;;;;5072406;28;20085;-46
2023/01/07 00:51:20;;;;;;;39.90;31.23;;;10.40;99.90;;;;;;5072855;28;20044;-45
2023/01/07 00:53:46;;;;;;;44.97;32.55;;;10.90;99.90;;;;;;5071272;28;20048;-47
2023/01/07 00:56:17;;;;;;;42.58;30.73;;;10.90;99.90;;;;;;5072828;28;20032;-46
2023/01/07 00:58:44;;;;;;;42.55;31.00;;;10.70;99.90;;;;;;5071380;28;20511;-46
2023/01/07 01:01:10;;;;;;;44.53;30.55;;;11.00;99.90;;;;;;5072177;28;20036;-46
2023/01/07 01:03:37;;;;;;;38.95;31.13;;;10.50;99.90;;;;;;5072173;28;20115;-49
2023/01/07 01:06:06;;;;;;;39.55;29.98;;;10.40;99.90;;;;;;5072768;28;20036;-46
2023/01/07 01:08:32;;;;;;;38.25;29.65;;;10.50;99.90;;;;;;5072560;28;20034;-47
2023/01/07 01:11:05;;;;;;;37.78;30.00;;;10.40;99.90;;;;;;5072471;28;20383;-45
2023/01/07 01:13:31;;;;;;;38.17;29.45;;;10.40;99.90;;;;;;5071980;28;20048;-46
2023/01/07 01:15:57;;;;;;;36.13;28.30;;;10.40;99.90;;;;;;5072283;28;20166;-46
2023/01/07 01:18:23;;;;;;;33.22;27.20;;;10.50;99.90;;;;;;5071910;28;20131;-47
2023/01/07 01:20:49;;;;;;;34.78;28.00;;;11.00;99.90;;;;;;5072000;28;20047;-47
2023/01/07 01:23:14;;;;;;;36.13;28.10;;;10.50;99.90;;;;;;5072035;28;20041;-47
2023/01/07 01:25:40;;;;;;;35.95;28.48;;;11.00;99.90;;;;;;5072223;28;20507;-48
2023/01/07 01:28:06;;;;;;;35.58;28.88;;;10.40;99.90;;;;;;5072021;28;20800;-46
2023/01/07 01:30:31;;;;;;;37.67;28.95;;;10.90;99.90;;;;;;5071830;28;20033;-49
2023/01/07 01:32:57;;;;;;;35.35;28.45;;;10.40;99.90;;;;;;5071360;28;20052;-47
2023/01/07 01:35:23;;;;;;;36.08;28.23;;;10.60;99.90;;;;;;5070565;28;20044;-46
2023/01/07 01:37:48;;;;;;;35.10;28.20;;;11.00;99.90;;;;;;5071141;28;20442;-46
2023/01/07 01:40:14;;;;;;;34.90;29.58;;;11.00;99.90;;;;;;5071868;28;20094;-46
2023/01/07 01:42:40;;;;;;;34.63;28.23;;;10.40;99.90;;;;;;5071212;28;20072;-46
2023/01/07 01:45:06;;;;;;;37.90;28.23;;;10.50;99.90;;;;;;5071644;28;20127;-48
2023/01/07 01:47:44;;;;;;;37.05;28.92;;;10.30;99.90;;;;;;5070985;28;20028;-46
2023/01/07 01:50:44;;;;;;;37.38;29.35;;;10.50;99.90;;;;;;5071508;28;20040;-45
2023/01/07 01:53:20;;;;;;;36.30;29.45;;;10.30;99.90;;;;;;5071298;28;20055;-47
2023/01/07 01:55:59;;;;;;;37.28;30.10;;;10.70;99.90;;;;;;5071203;28;20052;-48
2023/01/07 01:58:36;;;;;;;35.30;28.52;;;10.90;99.90;;;;;;5070036;28;20040;-46
2023/01/07 02:01:01;;;;;;;33.90;27.50;;;11.00;99.90;;;;;;5070311;28;20063;-46
2023/01/07 02:03:30;;;;;;;36.88;29.25;;;11.00;99.90;;;;;;5073247;28;20032;-48
2023/01/07 02:05:56;;;;;;;34.42;27.75;;;10.90;99.90;;;;;;5071603;28;20399;-46
2023/01/07 02:08:22;;;;;;;32.65;27.48;;;10.60;99.90;;;;;;5071357;28;20036;-45
2023/01/07 02:11:09;;;;;;;33.47;27.45;;;10.80;99.90;;;;;;5070122;28;20085;-50
2023/01/07 02:13:49;;;;;;;28.67;25.50;;;10.40;99.90;;;;;;5071217;28;20032;-47
2023/01/07 02:16:28;;;;;;;33.17;27.13;;;10.40;99.90;;;;;;5071086;28;20147;-45
2023/01/07 02:19:29;;;;;;;30.50;25.92;;;10.80;99.90;;;;;;5071157;28;20147;-46
2023/01/07 02:22:20;;;;;;;31.13;24.85;;;10.40;99.90;;;;;;5070677;28;20040;-46
2023/01/07 02:25:24;;;;;;;30.23;25.75;;;11.00;99.90;;;;;;5073849;28;20392;-45
2023/01/07 02:27:55;;;;;;;28.63;24.95;;;10.80;99.90;;;;;;5059306;28;20391;-47
2023/01/07 02:30:39;;;;;;;31.05;25.95;;;10.40;99.90;;;;;;5070752;28;20123;-48
2023/01/07 02:33:28;;;;;;;28.30;25.20;;;10.60;99.90;;;;;;5070773;28;20566;-46
2023/01/07 02:36:22;;;;;;;30.08;24.73;;;10.60;99.90;;;;;;5071389;28;20047;-46
2023/01/07 02:39:08;;;;;;;29.75;24.48;;;10.90;99.90;;;;;;5079270;28;20048;-47
2023/01/07 02:41:43;;;;;;;30.33;24.48;;;10.40;99.90;;;;;;5058746;28;20048;-46
2023/01/07 02:44:27;;;;;;;31.05;25.63;;;10.40;99.90;;;;;;5070799;28;20043;-45
2023/01/07 02:46:55;;;;;;;28.23;24.60;;;10.60;99.90;;;;;;5071032;28;20032;-45
2023/01/07 02:49:22;;;;;;;29.20;23.95;;;11.00;99.90;;;;;;5074362;28;20048;-46
2023/01/07 02:51:49;;;;;;;29.02;24.27;;;10.90;99.90;;;;;;5080038;28;20036;-45
2023/01/07 02:54:24;;;;;;;28.98;24.73;;;10.90;99.90;;;;;;5070454;28;20040;-45
2023/01/07 02:56:56;;;;;;;30.20;23.42;;;10.80;99.90;;;;;;5070759;28;20522;-45
2023/01/07 02:59:36;;;;;;;29.48;23.90;;;10.90;99.90;;;;;;5070398;28;20052;-46
2023/01/07 03:02:34;;;;;;;27.10;22.48;;;10.90;99.90;;;;;;5073109;28;20036;-47
2023/01/07 03:05:18;;;;;;;31.75;24.27;;;10.50;99.90;;;;;;5074947;28;20040;-45
2023/01/07 03:08:00;;;;;;;28.60;23.98;;;10.60;99.90;;;;;;5074487;28;20032;-46
2023/01/07 03:10:44;;;;;;;27.73;23.20;;;10.70;99.90;;;;;;5074621;28;20048;-47
2023/01/07 03:13:19;;;;;;;32.72;23.30;;;10.40;99.90;;;;;;5074475;28;20076;-47
2023/01/07 03:15:50;;;;;;;28.33;22.45;;;10.60;99.90;;;;;;5073621;28;20053;-47
2023/01/07 03:18:21;;;;;;;29.17;22.45;;;10.80;99.90;;;;;;5074544;28;20082;-48
2023/01/07 03:20:52;;;;;;;32.60;23.42;;;10.40;99.90;;;;;;5074347;28;20131;-45
2023/01/07 03:23:22;;;;;;;27.05;20.77;;;10.80;99.90;;;;;;5073021;28;20111;-46
2023/01/07 03:25:50;;;;;;;29.90;22.15;;;10.40;99.90;;;;;;5074326;28;20041;-46
2023/01/07 03:28:20;;;;;;;29.95;22.95;;;10.40;99.90;;;;;;5074368;28;20032;-45
2023/01/07 03:30:48;;;;;;;28.70;21.85;;;10.70;99.90;;;;;;5073581;28;20056;-46
2023/01/07 03:33:27;;;;;;;26.92;20.42;;;10.60;99.90;;;;;;5073709;28;20056;-46
2023/01/07 03:35:56;;;;;;;27.15;21.25;;;10.60;99.90;;;;;;5074336;28;20041;-48
2023/01/07 03:38:23;;;;;;;26.52;21.10;;;10.40;99.90;;;;;;5074171;28;20369;-49
2023/01/07 03:40:50;;;;;;;26.17;20.48;;;10.60;99.90;;;;;;5073798;28;20444;-48
2023/01/07 03:43:21;;;;;;;26.58;20.00;;;10.40;99.90;;;;;;5073796;28;20055;-47
2023/01/07 03:45:48;;;;;;;25.67;19.90;;;10.50;99.90;;;;;;5073702;28;20040;-47
2023/01/07 03:48:14;;;;;;;25.02;19.50;;;10.70;99.90;;;;;;5074160;28;20119;-48
2023/01/07 03:50:40;;;;;;;24.15;20.05;;;10.70;99.90;;;;;;5073905;28;20453;-46
2023/01/07 03:53:06;;;;;;;26.58;19.90;;;10.70;99.90;;;;;;5073954;28;20051;-50
2023/01/07 03:55:31;;;;;;;25.27;18.80;;;10.50;99.90;;;;;;5073675;28;20071;-47
2023/01/07 03:57:57;;;;;;;23.50;18.30;;;10.40;99.90;;;;;;5073920;28;20166;-47
2023/01/07 04:00:23;;;;;;;22.02;18.45;;;10.60;99.90;;;;;;5073136;28;20075;-46
2023/01/07 04:02:49;;;;;;;24.02;19.23;;;10.60;99.90;;;;;;5072452;28;20041;-46
2023/01/07 04:05:14;;;;;;;24.13;18.25;;;10.50;99.90;;;;;;5071868;28;20512;-48
2023/01/07 04:07:40;;;;;;;21.63;16.88;;;10.50;99.90;;;;;;5072501;28;20090;-45
2023/01/07 04:10:07;;;;;;;21.58;18.08;;;10.40;99.90;;;;;;5073809;28;20423;-47
2023/01/07 04:12:32;;;;;;;20.98;16.98;;;10.60;99.90;;;;;;5073453;28;20040;-46
2023/01/07 04:14:58;;;;;;;19.88;16.25;;;10.50;99.90;;;;;;5073309;28;20940;-47
2023/01/07 04:17:24;;;;;;;20.35;15.95;;;10.30;99.90;;;;;;5073863;28;20131;-46
2023/01/07 04:19:50;;;;;;;22.48;15.93;;;10.40;99.90;;;;;;5073470;28;20047;-46
2023/01/07 04:22:15;;;;;;;20.95;16.25;;;10.30;99.90;;;;;;5073115;28;20040;-47
2023/01/07 04:24:41;;;;;;;18.92;15.20;;;10.60;99.90;;;;;;5073236;28;20086;-48
2023/01/07 04:27:07;;;;;;;19.45;15.55;;;10.30;99.90;;;;;;5073034;28;20062;-46
2023/01/07 04:29:32;;;;;;;19.90;15.77;;;10.50;99.90;;;;;;5072934;28;20043;-47
2023/01/07 04:31:58;;;;;;;19.83;16.20;;;10.30;99.90;;;;;;5072390;28;20495;-47
2023/01/07 04:34:24;;;;;;;20.30;15.75;;;10.20;99.90;;;;;;5072790;28;20060;-45
2023/01/07 04:36:50;;;;;;;19.85;15.25;;;10.40;99.90;;;;;;5073191;28;20107;-45
2023/01/07 04:39:16;;;;;;;21.45;15.57;;;10.40;99.90;;;;;;5072851;28;20052;-45
2023/01/07 04:41:42;;;;;;;20.75;15.55;;;10.40;99.90;;;;;;5071606;28;20543;-47
2023/01/07 04:44:08;;;;;;;20.20;15.13;;;10.20;99.90;;;;;;5082101;28;20494;-45
2023/01/07 04:46:34;;;;;;;19.38;14.93;;;10.40;99.90;;;;;;5072830;28;20037;-46
2023/01/07 04:49:00;;;;;;;18.55;14.60;;;10.40;99.90;;;;;;5072600;28;20052;-47
2023/01/07 04:51:25;;;;;;;19.40;15.35;;;10.40;99.90;;;;;;5072817;28;20041;-47
2023/01/07 04:53:51;;;;;;;19.40;15.75;;;10.10;99.90;;;;;;5072771;28;20037;-46
2023/01/07 04:56:17;;;;;;;17.70;13.93;;;10.20;99.90;;;;;;5072901;28;20067;-47
2023/01/07 04:58:43;;;;;;;19.38;14.48;;;10.40;99.90;;;;;;5072671;28;20112;-47
2023/01/07 05:01:09;;;;;;;19.70;14.95;;;10.50;99.90;;;;;;5072285;28;20076;-46
2023/01/07 05:03:36;;;;;;;19.27;14.15;;;10.40;99.90;;;;;;5072729;28;20052;-45
2023/01/07 05:06:02;;;;;;;16.95;13.30;;;10.40;99.90;;;;;;5072244;28;20068;-46
2023/01/07 05:08:28;;;;;;;20.83;14.00;;;10.40;99.90;;;;;;5072331;28;20422;-46
2023/01/07 05:10:54;;;;;;;18.90;12.95;;;10.20;99.90;;;;;;5072216;28;20120;-48
2023/01/07 05:13:22;;;;;;;19.35;13.27;;;10.40;99.90;;;;;;5072254;28;20400;-48
2023/01/07 05:15:48;;;;;;;15.07;13.13;;;10.10;99.90;;;;;;5070833;28;20037;-48
2023/01/07 05:18:14;;;;;;;17.33;13.02;;;10.40;99.90;;;;;;5072456;28;20141;-47
2023/01/07 05:20:39;;;;;;;16.20;12.25;;;10.20;99.90;;;;;;5072261;28;20041;-45
2023/01/07 05:23:05;;;;;;;17.65;12.32;;;10.40;99.90;;;;;;5070514;28;20039;-46
2023/01/07 05:25:32;;;;;;;18.73;13.13;;;10.20;99.90;;;;;;5072141;28;20041;-46
2023/01/07 05:27:58;;;;;;;15.73;12.82;;;10.30;99.90;;;;;;5070803;28;20127;-47
2023/01/07 05:30:24;;;;;;;17.23;11.95;;;10.40;99.90;;;;;;5071118;28;20031;-45
2023/01/07 05:32:50;;;;;;;16.52;11.98;;;10.20;99.90;;;;;;5071915;28;20093;-46
2023/01/07 05:35:15;;;;;;;16.33;12.23;;;10.20;99.90;;;;;;5071827;28;20085;-47
2023/01/07 05:37:41;;;;;;;18.02;12.25;;;10.40;99.90;;;;;;5071752;28;20040;-46
2023/01/07 05:40:08;;;;;;;16.45;11.38;;;10.20;99.90;;;;;;5071643;28;20033;-47
2023/01/07 05:42:33;;;;;;;15.02;12.25;;;10.20;99.90;;;;;;5071575;28;20063;-46
2023/01/07 05:44:59;;;;;;;15.23;11.63;;;10.30;99.90;;;;;;5071661;28;20040;-47
2023/01/07 05:47:25;;;;;;;16.92;11.95;;;10.30;99.90;;;;;;5071535;28;20036;-47
2023/01/07 05:49:50;;;;;;;13.00;11.40;;;10.40;99.90;;;;;;5071689;28;20072;-50
2023/01/07 05:52:16;;;;;;;16.88;11.68;;;10.20;99.90;;;;;;5081328;28;20036;-47
2023/01/07 05:54:42;;;;;;;13.10;10.38;;;10.30;99.90;;;;;;5074952;28;20078;-47
2023/01/07 05:57:07;;;;;;;17.20;12.05;;;10.40;99.90;;;;;;5071348;28;20040;-46
2023/01/07 05:59:33;;;;;;;13.82;11.07;;;10.40;99.90;;;;;;5071515;28;20045;-48
2023/01/07 06:02:00;;;;;;;14.02;10.60;;;10.20;99.90;;;;;;5073512;28;20482;-45
2023/01/07 06:04:27;;;;;;;15.10;10.65;;;10.40;99.90;;;;;;5077364;28;20395;-46
2023/01/07 06:06:52;;;;;;;14.82;10.65;;;10.20;99.90;;;;;;5070267;28;20048;-47
2023/01/07 06:09:18;;;;;;;14.27;10.52;;;10.30;99.90;;;;;;5069842;28;20054;-46
2023/01/07 06:11:44;;;;;;;15.02;11.20;;;10.40;99.90;;;;;;5069534;28;20040;-46
2023/01/07 06:14:10;;;;;;;16.33;10.95;;;10.20;99.90;;;;;;5052804;28;20067;-49
2023/01/07 06:16:36;;;;;;;13.05;9.65;;;10.20;99.90;;;;;;5071024;28;20039;-48
2023/01/07 06:19:01;;;;;;;12.15;9.43;;;10.30;99.90;;;;;;5073505;28;20495;-46
2023/01/07 06:21:27;;;;;;;14.35;10.23;;;10.40;99.90;;;;;;5071122;28;20078;-46
2023/01/07 06:23:54;;;;;;;13.43;10.35;;;10.10;99.90;;;;;;5069521;28;20083;-46
2023/01/07 06:26:20;;;;;;;15.43;9.60;;;10.30;99.90;;;;;;5070883;28;20037;-48
2023/01/07 06:28:45;;;;;;;13.65;9.30;;;10.10;99.90;;;;;;5070720;28;20045;-46
2023/01/07 06:31:11;;;;;;;14.20;9.35;;;10.30;99.90;;;;;;5070501;28;20059;-47
2023/01/07 06:33:39;;;;;;;14.77;9.82;;;10.20;99.90;;;;;;5070666;28;20043;-48
2023/01/07 06:36:05;;;;;;;14.13;9.15;;;10.30;99.90;;;;;;5070848;28;20102;-47
2023/01/07 06:38:31;;;;;;;11.85;9.02;;;10.20;99.90;;;;;;5070755;28;20032;-47
2023/01/07 06:40:57;;;;;;;14.35;8.77;;;10.00;99.90;;;;;;5070845;28;20094;-47
2023/01/07 06:43:24;;;;;;;12.35;8.77;;;10.20;99.90;;;;;;5070827;28;20446;-46
2023/01/07 06:45:49;;;;;;;14.27;8.85;;;10.00;99.90;;;;;;5069195;28;20029;-47
2023/01/07 06:48:15;;;;;;;13.80;9.35;;;9.90;99.90;;;;;;5070926;28;20029;-47
2023/01/07 06:50:41;;;;;;;11.20;7.97;;;10.10;99.90;;;;;;5070910;28;20040;-48
2023/01/07 06:53:06;;;;;;;12.23;8.45;;;10.00;99.90;;;;;;5070740;28;20445;-50
2023/01/07 06:55:32;;;;;;;12.98;8.68;;;10.00;99.90;;;;;;5070388;28;20097;-47
2023/01/07 06:57:58;;;;;;;11.65;7.93;;;9.90;99.90;;;;;;5070600;28;20032;-46
2023/01/07 07:00:23;;;;;;;10.73;7.90;;;9.80;99.90;;;;;;5070393;28;20131;-47
2023/01/07 07:02:49;;;;;;;11.80;7.20;;;9.70;99.90;;;;;;5070299;28;20429;-47
2023/01/07 07:05:15;;;;;;;9.95;7.50;;;9.70;99.90;;;;;;5069103;28;20037;-48
2023/01/07 07:07:41;;;;;;;11.60;7.80;;;9.80;99.90;;;;;;5070311;28;20036;-47
2023/01/07 07:10:07;;;;;;;11.57;8.10;;;9.70;99.90;;;;;;5070734;28;20135;-47
2023/01/07 07:12:35;;;;;;;11.07;7.60;;;9.80;99.90;;;;;;5070674;28;20511;-49
2023/01/07 07:15:01;;;;;;;11.43;7.70;;;9.70;99.90;;;;;;5069846;28;20411;-47
2023/01/07 07:17:26;;;;;;;11.50;7.57;;;9.60;99.90;;;;;;5068875;28;20048;-46
2023/01/07 07:19:52;;;;;;;10.70;7.90;;;9.70;99.90;;;;;;5069359;28;20085;-49
2023/01/07 07:22:18;;;;;;;10.90;7.53;;;9.60;99.90;;;;;;5070210;28;20550;-46
2023/01/07 07:24:43;;;;;;;10.57;7.50;;;9.60;99.90;;;;;;5070019;28;20103;-47
2023/01/07 07:27:09;;;;;;;13.15;7.72;;;9.60;99.90;;;;;;5070663;28;20036;-49
2023/01/07 07:29:35;;;;;;;11.15;7.07;;;9.50;99.90;;;;;;5070547;28;20066;-45
2023/01/07 07:32:00;;;;;;;9.95;6.97;;;9.70;99.90;;;;;;5068326;28;20044;-46
2023/01/07 07:34:26;;;;;;;13.35;7.38;;;9.70;99.90;;;;;;5068568;28;20719;-47
2023/01/07 07:36:52;;;;;;;10.18;7.25;;;9.50;99.90;;;;;;5070342;28;20040;-46
2023/01/07 07:39:17;;;;;;;11.40;6.47;;;9.70;99.90;;;;;;5069809;28;20040;-46
2023/01/07 07:41:43;;;;;;;10.95;6.57;;;9.50;99.90;;;;;;5070563;28;20076;-47
2023/01/07 07:44:09;;;;;;;11.02;6.80;;;9.70;99.90;;;;;;5068799;28;20043;-47
2023/01/07 07:46:35;;;;;;;9.35;6.82;;;9.60;99.90;;;;;;5052646;28;20087;-47
2023/01/07 07:49:00;;;;;;;10.10;6.57;;;9.50;99.90;;;;;;5073456;28;20090;-48
2023/01/07 07:51:26;;;;;;;10.35;6.38;;;9.60;99.90;;;;;;5072269;28;20123;-48
2023/01/07 07:53:52;;;;;;;10.23;6.40;;;9.50;99.90;;;;;;5072061;28;20457;-47
2023/01/07 07:56:17;;;;;;;10.48;7.10;;;9.50;99.90;;;;;;5073042;28;20048;-50
2023/01/07 07:58:43;;;;;;;10.98;6.57;;;9.40;99.90;;;;;;5073780;28;20036;-46
2023/01/07 08:01:09;;;;;;;8.57;6.15;;;9.50;99.90;;;;;;5071841;28;20075;-47
2023/01/07 08:03:35;;;;;;;9.25;6.43;;;9.40;99.90;;;;;;5073836;28;20059;-46
2023/01/07 08:06:03;;;;;;;8.82;6.38;;;9.30;99.90;;;;;;5070862;28;20074;-46
2023/01/07 08:08:29;;;;;;;10.02;5.65;;;9.30;99.90;;;;;;5072403;28;20124;-47
2023/01/07 08:10:55;;;;;;;12.18;6.57;;;9.40;99.90;;;;;;5071589;28;20123;-49
2023/01/07 08:13:21;;;;;;;9.23;5.95;;;9.50;99.90;;;;;;5070658;28;20047;-48
2023/01/07 08:15:47;;;;;;;9.90;5.72;;;9.50;99.90;;;;;;5060712;28;20047;-47
2023/01/07 08:18:13;;;;;;;8.90;5.57;;;9.40;99.90;;;;;;5063427;28;20500;-47
2023/01/07 08:20:38;;;;;;;8.18;5.60;;;9.40;99.90;;;;;;5063404;28;20087;-45
2023/01/07 08:23:06;;;;;;;9.52;6.13;;;9.40;99.90;;;;;;5062919;28;20547;-47
2023/01/07 08:25:33;;;;;;;9.98;5.95;;;9.50;99.90;;;;;;5062422;28;20036;-47
2023/01/07 08:27:59;;;;;;;8.93;6.05;;;9.50;99.90;;;;;;5063234;28;20033;-49
2023/01/07 08:30:26;;;;;;;9.23;5.45;;;9.40;99.90;;;;;;5063099;28;20032;-46
2023/01/07 08:32:52;;;;;;;9.70;5.40;;;9.30;99.90;;;;;;5063575;28;20052;-49
2023/01/07 08:35:17;;;;;;;8.88;5.45;;;9.30;99.90;;;;;;5063154;28;20044;-50
2023/01/07 08:37:43;;;;;;;8.13;4.95;;;9.50;99.90;;;;;;5062902;28;20051;-46
2023/01/07 08:40:11;;;;;;;7.07;5.35;;;9.50;99.90;;;;;;5060560;28;20554;-47
2023/01/07 08:42:37;;;;;;;8.80;4.80;;;9.50;99.90;;;;;;5060183;28;20090;-46
2023/01/07 08:45:04;;;;;;;8.55;5.30;;;9.30;99.90;;;;;;5058910;28;20484;-51
2023/01/07 08:47:30;;;;;;;7.68;4.70;;;9.40;99.90;;;;;;5050977;28;20036;-48
2023/01/07 08:49:56;;;;;;;9.02;4.90;;;9.40;99.90;;;;;;5056942;28;20044;-48
2023/01/07 08:52:23;;;;;;;6.43;4.50;;;9.30;99.90;;;;;;5058931;28;20055;-50
2023/01/07 08:54:50;;;;;;;7.28;5.10;;;9.40;99.90;;;;;;5057763;28;20083;-47
2023/01/07 08:57:16;;;;;;;8.15;4.50;;;9.40;99.90;;;;;;5059475;28;20536;-47
2023/01/07 08:59:42;;;;;;;8.57;4.43;;;9.50;99.90;;;;;;5055830;28;20077;-47
2023/01/07 09:02:13;;;;;;;7.95;4.82;;;9.50;99.90;;;;;;5057522;28;20050;-47
2023/01/07 09:04:39;;;;;;;7.28;4.95;;;9.40;99.90;;;;;;5056794;28;20028;-46
2023/01/07 09:07:04;;;;;;;9.23;5.18;;;9.50;99.90;;;;;;5055781;28;20037;-48
2023/01/07 09:09:30;;;;;;;7.07;4.35;;;9.40;99.90;;;;;;5056388;28;20060;-46
2023/01/07 09:11:56;;;;;;;8.93;4.47;;;9.50;99.90;;;;;;5055895;28;20499;-47
2023/01/07 09:14:21;;;;;;;7.38;5.03;;;9.50;99.90;;;;;;5057205;28;20124;-46
2023/01/07 09:16:47;;;;;;;8.77;4.22;;;9.50;99.90;;;;;;5057069;28;20454;-48
2023/01/07 09:19:13;;;;;;;9.13;4.75;;;9.40;99.90;;;;;;5054595;28;20400;-47
2023/01/07 09:21:38;;;;;;;7.18;4.22;;;9.60;99.90;;;;;;5054386;28;20435;-46
2023/01/07 09:24:04;;;;;;;6.82;4.65;;;9.60;99.90;;;;;;5054725;28;20044;-46
2023/01/07 09:26:30;;;;;;;7.28;4.00;;;9.50;99.90;;;;;;5054352;28;20036;-50
2023/01/07 09:28:55;;;;;;;7.35;4.18;;;9.60;99.90;;;;;;5053738;28;20036;-50
2023/01/07 09:31:23;;;;;;;7.78;4.07;;;9.70;99.90;;;;;;5058899;28;20045;-47
2023/01/07 09:33:49;;;;;;;6.43;3.80;;;9.60;99.90;;;;;;5058085;28;20063;-53
2023/01/07 09:36:15;;;;;;;7.00;4.10;;;9.70;99.90;;;;;;5055812;28;20889;-49
2023/01/07 09:38:40;;;;;;;7.20;4.10;;;9.70;99.90;;;;;;5052801;28;20391;-47
2023/01/07 09:41:29;;;;;;;6.60;3.70;;;9.80;99.90;;;;;;5056503;28;20136;-47
2023/01/07 09:44:06;;;;;;;7.45;3.90;;;9.70;99.90;;;;;;5048056;28;20036;-46
2023/01/07 09:46:32;;;;;;;6.90;3.75;;;9.80;99.90;;;;;;5059550;28;20539;-47
2023/01/07 09:49:02;;;;;;;5.50;3.60;;;9.90;99.90;;;;;;5058526;28;20115;-46
2023/01/07 09:51:34;;;;;;;6.97;3.58;;;9.90;99.90;;;;;;5057241;28;20155;-48
2023/01/07 09:54:03;;;;;;;6.45;3.85;;;10.00;99.90;;;;;;5055152;28;20041;-47
2023/01/07 09:56:34;;;;;;;7.07;3.83;;;10.00;99.90;;;;;;5053604;28;20028;-46
2023/01/07 09:59:02;;;;;;;4.95;3.30;;;10.00;99.90;;;;;;5053928;28;20048;-46
2023/01/07 10:02:12;;;;;;;5.75;3.75;;;10.10;99.90;;;;;;5054838;28;20332;-48
2023/01/07 10:05:06;;;;;;;5.65;3.70;;;10.10;99.90;;;;;;5037146;28;20045;-48
2023/01/07 10:07:43;;;;;;;4.78;3.00;;;10.20;99.90;;;;;;5056382;28;20024;-48
2023/01/07 10:10:35;;;;;;;5.82;3.15;;;10.30;99.90;;;;;;5053348;28;20047;-49
2023/01/07 10:13:03;;;;;;;5.30;3.17;;;10.30;99.90;;;;;;5046841;28;20048;-49
2023/01/07 10:16:07;;;;;;;5.50;3.13;;;10.30;99.90;;;;;;5059948;28;20526;-46
2023/01/07 10:18:36;;;;;;;6.05;3.15;;;10.40;99.90;;;;;;5054052;28;20048;-46
2023/01/07 10:21:17;;;;;;;5.00;2.70;;;10.40;99.90;;;;;;5058495;28;20051;-49
2023/01/07 10:23:47;;;;;;;5.97;2.97;;;10.50;99.90;;;;;;5055907;28;20093;-46
2023/01/07 10:26:29;;;;;;;5.65;3.10;;;10.50;99.90;;;;;;5057793;28;20044;-48
2023/01/07 10:29:07;;;;;;;5.47;3.28;;;10.50;99.90;;;;;;5055378;28;20036;-48
2023/01/07 10:31:33;;;;;;;4.93;2.78;;;10.50;99.90;;;;;;5054652;28;20357;-46
2023/01/07 10:33:59;;;;;;;6.65;2.65;;;10.60;99.90;;;;;;5050994;28;20052;-49
2023/01/07 10:36:37;;;;;;;4.05;2.40;;;10.60;99.90;;;;;;5055744;28;20636;-46
2023/01/07 10:39:41;;;;;;;5.35;2.53;;;10.60;99.90;;;;;;5053356;28;20041;-46
2023/01/07 10:42:24;;;;;;;5.85;2.80;;;10.60;99.90;;;;;;5054133;28;20548;-48
2023/01/07 10:45:20;;;;;;;4.82;2.50;;;10.60;99.90;;;;;;5055373;28;20499;-50
2023/01/07 10:48:02;;;;;;;4.90;2.63;;;10.50;99.90;;;;;;5055136;28;20041;-48
2023/01/07 10:50:50;;;;;;;4.15;2.53;;;10.60;99.90;;;;;;5051102;28;20522;-47
2023/01/07 10:53:37;;;;;;;4.25;2.45;;;10.60;99.90;;;;;;5051264;28;20033;-49
2023/01/07 10:56:06;;;;;;;4.82;2.67;;;10.60;99.90;;;;;;5052287;28;20068;-49
2023/01/07 10:58:40;;;;;;;5.00;2.80;;;10.70;99.90;;;;;;5054514;28;20440;-49
2023/01/07 11:01:10;;;;;;;3.97;2.50;;;10.70;99.90;;;;;;5059305;28;20056;-46
2023/01/07 11:03:39;;;;;;;4.28;2.30;;;10.60;99.90;;;;;;5057265;28;20211;-49
2023/01/07 11:06:10;;;;;;;4.55;2.50;;;10.70;99.90;;;;;;5059149;28;20044;-49
2023/01/07 11:08:38;;;;;;;3.25;2.22;;;10.70;99.90;;;;;;5051810;28;20037;-46
2023/01/07 11:11:06;;;;;;;5.47;2.40;;;10.60;99.90;;;;;;5054849;28;20036;-49
2023/01/07 11:13:36;;;;;;;4.30;2.50;;;10.70;99.90;;;;;;5054263;28;20169;-48
2023/01/07 11:16:22;;;;;;;3.88;2.35;;;10.60;99.90;;;;;;5055188;28;20101;-49
2023/01/07 11:18:59;;;;;;;4.50;2.35;;;10.60;99.90;;;;;;5056103;28;20507;-50
2023/01/07 11:21:36;;;;;;;5.38;2.30;;;10.60;99.90;;;;;;5052939;28;20033;-46
2023/01/07 11:24:21;;;;;;;4.47;2.38;;;10.70;99.90;;;;;;5056512;28;20021;-48
2023/01/07 11:26:48;;;;;;;4.15;2.40;;;10.60;99.90;;;;;;5058603;28;20541;-47
2023/01/07 11:29:26;;;;;;;3.97;2.30;;;11.70;99.90;;;;;;5057890;28;20147;-47
2023/01/07 11:31:56;;;;;;;3.63;2.30;;;10.70;99.90;;;;;;5058059;28;20032;-49
2023/01/07 11:34:51;;;;;;;4.38;2.50;;;10.70;99.90;;;;;;5054004;28;20072;-53
2023/01/07 11:37:44;;;;;;;3.35;1.92;;;10.70;99.90;;;;;;5067164;28;20115;-47
2023/01/07 11:40:13;;;;;;;4.70;2.35;;;10.70;99.90;;;;;;5066816;28;20068;-49
2023/01/07 11:42:50;;;;;;;4.22;2.28;;;10.90;99.90;;;;;;5067245;28;20036;-47
2023/01/07 11:45:30;;;;;;;5.47;2.13;;;10.90;99.90;;;;;;5065905;28;20043;-48
2023/01/07 11:48:05;;;;;;;4.53;2.38;;;11.00;99.90;;;;;;5065103;28;20159;-46
2023/01/07 11:50:55;;;;;;;3.50;2.10;;;11.20;99.90;;;;;;5063837;28;20036;-50
2023/01/07 11:53:33;;;;;;;4.03;2.10;;;11.40;99.90;;;;;;5057737;28;20052;-50
2023/01/07 11:56:27;;;;;;;6.28;2.28;;;11.50;99.90;;;;;;5062347;28;20142;-47
2023/01/07 11:59:19;;;;;;;5.35;1.95;;;11.50;99.90;;;;;;5067182;28;20064;-49
2023/01/07 12:01:45;;;;;;;2.85;1.65;;;11.70;99.90;;;;;;5060834;28;20384;-49
2023/01/07 12:04:19;;;;;;;4.30;2.50;;;11.80;99.90;;;;;;5064256;28;20043;-50
2023/01/07 12:06:46;;;;;;;4.22;2.00;;;11.90;99.90;;;;;;5062727;28;20106;-48
2023/01/07 12:09:45;;;;;;;4.38;1.75;;;11.90;99.90;;;;;;5060810;28;20123;-49
2023/01/07 12:12:33;;;;;;;4.82;2.17;;;11.80;99.90;;;;;;5032426;28;20052;-49
2023/01/07 12:15:03;;;;;;;4.35;2.40;;;11.80;99.90;;;;;;5064788;28;20037;-48
2023/01/07 12:17:33;;;;;;;4.10;2.10;;;11.70;99.90;;;;;;5071979;28;20032;-51
2023/01/07 12:20:12;;;;;;;4.72;1.90;;;11.80;99.90;;;;;;5072872;28;20048;-48
2023/01/07 12:22:56;;;;;;;4.05;2.00;;;11.90;99.90;;;;;;5073416;28;20040;-48
2023/01/07 12:25:31;;;;;;;3.30;1.77;;;11.90;99.90;;;;;;5081087;28;20123;-48
2023/01/07 12:28:07;;;;;;;3.40;1.70;;;12.00;99.90;;;;;;5072915;28;20040;-48
2023/01/07 12:30:57;;;;;;;3.45;1.60;;;11.90;99.90;;;;;;5070828;28;20559;-50
2023/01/07 12:33:29;;;;;;;3.38;1.70;;;12.00;99.90;;;;;;5071434;28;20052;-48
2023/01/07 12:35:59;;;;;;;2.97;1.60;;;12.10;99.90;;;;;;5073387;28;20110;-50
2023/01/07 12:38:40;;;;;;;2.85;1.50;;;12.20;99.90;;;;;;5072164;28;20127;-47
2023/01/07 12:41:18;;;;;;;3.75;1.75;;;12.20;99.90;;;;;;5072149;28;20040;-50
2023/01/07 12:43:58;;;;;;;3.30;1.58;;;12.30;99.90;;;;;;5073162;28;20036;-49
2023/01/07 12:46:29;;;;;;;3.65;1.40;;;12.30;99.90;;;;;;5073194;28;20064;-49
2023/01/07 12:49:01;;;;;;;2.92;1.50;;;12.30;99.90;;;;;;5072632;28;20039;-48
2023/01/07 12:51:54;;;;;;;4.35;1.40;;;12.40;99.90;;;;;;5072887;28;20028;-47
2023/01/07 12:54:51;;;;;;;2.15;1.10;;;12.30;99.90;;;;;;5072605;28;20107;-50
2023/01/07 12:57:19;;;;;;;2.95;1.30;;;12.40;99.90;;;;;;5072224;28;20391;-48